< < Back
Terminal Aerodrome Forecast


Current Version              Previous Versions:   1  2  3  4  5  6  7  8  9  

Terminal Aerodrome Forecast

330
FTUS44 KBMX 031737
TAFTCL
TAF
KTCL 031737Z 0318/0418 01009KT P6SM SKC
     FM040200 00000KT P6SM SKC=

Latest METAR

942
SAUS70 KWBC 042200 RRF
MTRTCL
METAR KTCL 042153Z 21006KT 10SM CLR 37/13 A2993 RMK AO2 SLP134
T03720133


USA.gov is the U.S. government's official web portal to all federal, state and local government web resources and services.